createdAt,value
2018-12-19T00:00:03.492Z,3.60
2018-12-19T00:02:35.030Z,3.80
2018-12-19T00:05:07.070Z,3.80
2018-12-19T00:07:39.148Z,3.90
2018-12-19T00:10:11.349Z,3.90
2018-12-19T00:12:42.549Z,4.00
2018-12-19T00:15:14.369Z,4.00
2018-12-19T00:17:46.409Z,3.90
2018-12-19T00:20:19.430Z,3.90
2018-12-19T00:22:51.953Z,3.90
2018-12-19T00:25:23.929Z,3.80
2018-12-19T00:27:55.311Z,3.70
2018-12-19T00:30:26.850Z,3.80
2018-12-19T00:32:58.890Z,3.70
2018-12-19T00:35:31.231Z,3.60
2018-12-19T00:38:03.309Z,3.50
2018-12-19T00:40:35.768Z,3.60
2018-12-19T00:43:07.810Z,3.60
2018-12-19T00:45:40.970Z,3.60
2018-12-19T00:48:12.608Z,3.70
2018-12-19T00:50:45.012Z,3.70
2018-12-19T00:53:17.570Z,3.80
2018-12-19T00:55:49.570Z,3.80
2018-12-19T00:58:21.349Z,3.90
2018-12-19T01:00:53.450Z,4.00
2018-12-19T01:03:26.109Z,4.20
2018-12-19T01:05:57.668Z,4.30
2018-12-19T01:08:29.600Z,4.30
2018-12-19T01:11:01.909Z,4.30
2018-12-19T01:13:33.412Z,4.30
2018-12-19T01:16:05.634Z,4.30
2018-12-19T01:18:37.210Z,4.30
2018-12-19T01:21:09.310Z,4.40
2018-12-19T01:23:40.831Z,4.30
2018-12-19T01:26:13.070Z,4.20
2018-12-19T01:28:44.670Z,4.20
2018-12-19T01:31:16.910Z,4.20
2018-12-19T01:33:48.530Z,4.20
2018-12-19T01:36:21.410Z,4.10
2018-12-19T01:38:52.969Z,4.10
2018-12-19T01:41:26.011Z,4.10
2018-12-19T01:43:58.031Z,4.10
2018-12-19T01:46:30.573Z,4.20
2018-12-19T01:49:02.010Z,4.20
2018-12-19T01:51:33.950Z,4.20
2018-12-19T01:54:05.511Z,4.30
2018-12-19T01:56:38.329Z,4.30
2018-12-19T01:59:09.730Z,4.30
2018-12-19T02:01:42.550Z,4.40
2018-12-19T02:04:14.349Z,4.30
2018-12-19T02:06:46.431Z,4.40
2018-12-19T02:09:17.631Z,4.40
2018-12-19T02:11:49.450Z,4.40
2018-12-19T02:14:20.729Z,4.30
2018-12-19T02:16:52.671Z,4.40
2018-12-19T02:19:24.590Z,4.50
2018-12-19T02:21:57.211Z,4.50
2018-12-19T02:24:29.410Z,4.50
2018-12-19T02:27:02.410Z,4.60
2018-12-19T02:29:34.632Z,4.60
2018-12-19T02:32:10.070Z,4.50
2018-12-19T02:34:41.629Z,4.60
2018-12-19T02:37:13.970Z,4.60
2018-12-19T02:39:45.710Z,4.50
2018-12-19T02:42:17.012Z,4.40
2018-12-19T02:44:48.773Z,4.30
2018-12-19T02:47:20.931Z,4.10
2018-12-19T02:49:52.589Z,4.10
2018-12-19T02:52:24.249Z,4.10
2018-12-19T02:54:56.451Z,4.00
2018-12-19T02:57:28.373Z,4.00
2018-12-19T03:00:00.470Z,4.10
2018-12-19T03:02:32.610Z,4.10
2018-12-19T03:05:04.229Z,4.10
2018-12-19T03:07:36.190Z,4.10
2018-12-19T03:10:08.689Z,4.10
2018-12-19T03:12:40.611Z,4.10
2018-12-19T03:15:12.729Z,4.10
2018-12-19T03:17:44.789Z,4.10
2018-12-19T03:20:16.350Z,4.10
2018-12-19T03:22:48.569Z,4.20
2018-12-19T03:25:20.510Z,4.30
2018-12-19T03:27:52.935Z,4.20
2018-12-19T03:30:25.516Z,4.20
2018-12-19T03:32:57.630Z,4.10
2018-12-19T03:35:29.448Z,4.00
2018-12-19T03:38:01.549Z,4.00
2018-12-19T03:40:33.489Z,4.00
2018-12-19T03:43:05.569Z,3.90
2018-12-19T03:45:37.751Z,4.00
2018-12-19T03:48:11.508Z,4.00
2018-12-19T03:50:43.008Z,4.00
2018-12-19T03:53:15.009Z,4.10
2018-12-19T03:55:47.229Z,4.10
2018-12-19T03:58:19.249Z,4.00
2018-12-19T04:00:50.548Z,4.00
2018-12-19T04:03:22.489Z,4.10
2018-12-19T04:05:54.892Z,4.20
2018-12-19T04:08:26.909Z,4.10
2018-12-19T04:10:59.689Z,4.20
2018-12-19T04:13:30.529Z,4.40
2018-12-19T04:16:04.289Z,4.40
2018-12-19T04:18:35.917Z,4.40
2018-12-19T04:21:07.949Z,4.30
2018-12-19T04:23:39.669Z,4.30
2018-12-19T04:26:11.293Z,4.40
2018-12-19T04:28:42.490Z,4.40
2018-12-19T04:31:15.212Z,4.40
2018-12-19T04:33:46.630Z,4.40
2018-12-19T04:36:19.070Z,4.40
2018-12-19T04:38:51.012Z,4.50
2018-12-19T04:41:23.391Z,4.60
2018-12-19T04:43:55.169Z,4.70
2018-12-19T04:46:27.030Z,4.80
2018-12-19T04:48:59.032Z,4.70
2018-12-19T04:51:31.169Z,4.70
2018-12-19T04:54:03.611Z,4.70
2018-12-19T04:56:35.632Z,4.70
2018-12-19T04:59:06.752Z,4.80
2018-12-19T05:01:38.790Z,4.70
2018-12-19T05:04:10.191Z,4.60
2018-12-19T05:06:42.111Z,4.50
2018-12-19T05:09:14.350Z,4.50
2018-12-19T05:11:45.729Z,4.40
2018-12-19T05:14:17.992Z,4.30
2018-12-19T05:16:49.720Z,4.30
2018-12-19T05:19:21.470Z,4.30
2018-12-19T05:21:53.269Z,4.20
2018-12-19T05:24:25.289Z,4.30
2018-12-19T05:26:56.890Z,4.30
2018-12-19T05:29:28.990Z,4.30
2018-12-19T05:32:00.992Z,4.30
2018-12-19T05:34:33.610Z,4.40
2018-12-19T05:37:04.791Z,4.40
2018-12-19T05:39:36.090Z,4.40
2018-12-19T05:42:07.750Z,4.50
2018-12-19T05:44:40.490Z,4.50
2018-12-19T05:47:13.115Z,4.50
2018-12-19T05:49:45.450Z,4.50
2018-12-19T05:52:17.431Z,4.40
2018-12-19T05:54:49.251Z,4.40
2018-12-19T05:57:21.473Z,4.40
2018-12-19T05:59:53.131Z,4.30
2018-12-19T06:02:25.870Z,4.30
2018-12-19T06:04:57.851Z,4.20
2018-12-19T06:07:30.112Z,4.20
2018-12-19T06:10:01.390Z,4.20
2018-12-19T06:12:33.973Z,4.20
2018-12-19T06:15:05.791Z,4.20
2018-12-19T06:17:38.211Z,4.10
2018-12-19T06:20:10.111Z,4.10
2018-12-19T06:22:41.811Z,4.20
2018-12-19T06:25:14.436Z,4.20
2018-12-19T06:27:45.951Z,4.20
2018-12-19T06:30:18.111Z,4.10
2018-12-19T06:32:50.271Z,4.10
2018-12-19T06:35:22.692Z,4.10
2018-12-19T06:37:55.393Z,4.20
2018-12-19T06:40:32.621Z,4.30
2018-12-19T06:43:02.371Z,4.30
2018-12-19T06:45:34.549Z,4.40
2018-12-19T06:48:06.490Z,4.50
2018-12-19T06:50:38.192Z,4.50
2018-12-19T06:53:10.090Z,4.50
2018-12-19T06:55:41.892Z,4.60
2018-12-19T06:58:13.931Z,4.70
2018-12-19T07:00:45.591Z,4.70
2018-12-19T07:03:17.270Z,4.80
2018-12-19T07:05:49.632Z,4.80
2018-12-19T07:08:21.590Z,4.80
2018-12-19T07:10:53.891Z,4.80
2018-12-19T07:13:25.851Z,4.80
2018-12-19T07:15:57.193Z,4.80
2018-12-19T07:18:29.610Z,4.80
2018-12-19T07:21:01.830Z,4.80
2018-12-19T07:23:34.911Z,4.80
2018-12-19T07:26:06.571Z,4.80
2018-12-19T07:28:38.331Z,4.80
2018-12-19T07:31:10.691Z,4.80
2018-12-19T07:33:43.160Z,4.70
2018-12-19T07:36:15.630Z,4.70
2018-12-19T07:38:47.970Z,4.80
2018-12-19T07:41:19.752Z,4.80
2018-12-19T07:43:51.931Z,4.80
2018-12-19T07:46:24.402Z,4.80
2018-12-19T07:48:57.472Z,4.80
2018-12-19T07:51:28.994Z,4.80
2018-12-19T07:54:01.190Z,4.70
2018-12-19T07:56:33.651Z,4.70
2018-12-19T07:59:06.530Z,4.70
2018-12-19T08:01:38.830Z,4.60
2018-12-19T08:04:10.952Z,4.60
2018-12-19T08:06:41.670Z,4.70
2018-12-19T08:09:13.951Z,4.80
2018-12-19T08:11:45.571Z,4.80
2018-12-19T08:14:18.073Z,4.90
2018-12-19T08:16:49.752Z,4.90
2018-12-19T08:19:21.771Z,4.90
2018-12-19T08:21:54.037Z,5.00
2018-12-19T08:24:26.273Z,5.00
2018-12-19T08:26:58.188Z,5.00
2018-12-19T08:29:31.427Z,5.10
2018-12-19T08:32:04.990Z,5.10
2018-12-19T08:34:36.926Z,5.20
2018-12-19T08:37:08.906Z,5.20
2018-12-19T08:39:41.428Z,5.30
2018-12-19T08:42:13.946Z,5.30
2018-12-19T08:44:45.862Z,5.30
2018-12-19T08:47:17.579Z,5.30
2018-12-19T08:49:49.621Z,5.40
2018-12-19T08:52:21.642Z,5.40
2018-12-19T08:54:54.241Z,5.50
2018-12-19T08:57:26.550Z,5.50
2018-12-19T08:59:59.900Z,5.60
2018-12-19T09:02:31.971Z,5.70
2018-12-19T09:05:03.129Z,5.70
2018-12-19T09:07:35.465Z,5.70
2018-12-19T09:10:07.666Z,5.60
2018-12-19T09:12:40.027Z,5.70
2018-12-19T09:15:12.567Z,5.70
2018-12-19T09:17:44.824Z,5.60
2018-12-19T09:20:17.305Z,5.70
2018-12-19T09:22:48.765Z,5.80
2018-12-19T09:25:21.424Z,5.90
2018-12-19T09:27:53.225Z,5.90
2018-12-19T09:30:25.306Z,5.90
2018-12-19T09:32:57.005Z,5.90
2018-12-19T09:35:27.385Z,5.90
2018-12-19T09:37:57.386Z,5.90
2018-12-19T09:40:27.490Z,5.90
2018-12-19T09:42:58.703Z,6.00
2018-12-19T09:45:28.585Z,5.90
2018-12-19T09:47:58.903Z,5.90
2018-12-19T09:50:30.524Z,5.90
2018-12-19T09:53:02.765Z,5.80
2018-12-19T09:55:34.722Z,5.80
2018-12-19T09:58:07.446Z,5.80
2018-12-19T10:00:39.743Z,5.90
2018-12-19T10:03:12.303Z,5.90
2018-12-19T10:05:43.563Z,6.00
2018-12-19T10:08:15.900Z,6.00
2018-12-19T10:10:48.521Z,6.00
2018-12-19T10:13:21.202Z,6.10
2018-12-19T10:15:53.150Z,6.10
2018-12-19T10:18:25.581Z,6.10
2018-12-19T10:20:57.303Z,6.30
2018-12-19T10:23:30.241Z,6.40
2018-12-19T10:26:05.701Z,6.40
2018-12-19T10:28:38.123Z,6.40
2018-12-19T10:31:10.021Z,6.40
2018-12-19T10:33:41.962Z,6.50
2018-12-19T10:36:14.743Z,6.50
2018-12-19T10:38:46.361Z,6.60
2018-12-19T10:41:18.541Z,6.70
2018-12-19T10:43:50.592Z,6.70
2018-12-19T10:46:22.273Z,6.80
2018-12-19T10:48:55.453Z,6.90
2018-12-19T10:51:27.253Z,6.80
2018-12-19T10:53:59.770Z,6.70
2018-12-19T10:56:30.638Z,6.60
2018-12-19T10:59:03.011Z,6.50
2018-12-19T11:01:34.931Z,6.40
2018-12-19T11:04:06.839Z,6.40
2018-12-19T11:06:38.651Z,6.40
2018-12-19T11:09:11.150Z,6.50
2018-12-19T11:11:42.810Z,6.70
2018-12-19T11:14:14.711Z,6.70
2018-12-19T11:16:45.790Z,6.80
2018-12-19T11:19:18.114Z,6.90
2018-12-19T11:21:51.196Z,6.80
2018-12-19T11:24:26.964Z,6.90
2018-12-19T11:26:57.630Z,6.90
2018-12-19T11:29:29.457Z,7.00
2018-12-19T11:32:01.880Z,7.00
2018-12-19T11:34:33.872Z,7.00
2018-12-19T11:37:05.886Z,7.00
2018-12-19T11:39:38.593Z,7.00
2018-12-19T11:42:09.500Z,7.00
2018-12-19T11:44:40.663Z,7.10
2018-12-19T11:47:12.483Z,7.20
2018-12-19T11:49:44.527Z,7.20
2018-12-19T11:52:15.723Z,7.20
2018-12-19T11:54:48.204Z,7.20
2018-12-19T11:57:20.044Z,7.20
2018-12-19T11:59:52.383Z,7.20
2018-12-19T12:02:23.985Z,7.30
2018-12-19T12:04:55.794Z,7.30
2018-12-19T12:07:28.284Z,7.30
2018-12-19T12:09:59.916Z,7.20
2018-12-19T12:12:30.442Z,7.20
2018-12-19T12:15:01.607Z,7.20
2018-12-19T12:17:32.718Z,7.20
2018-12-19T12:20:04.848Z,7.30
2018-12-19T12:22:36.189Z,7.30
2018-12-19T12:25:08.488Z,7.30
2018-12-19T12:27:40.167Z,7.30
2018-12-19T12:30:11.967Z,7.40
2018-12-19T12:32:44.548Z,7.40
2018-12-19T12:35:16.108Z,7.40
2018-12-19T12:37:47.789Z,7.30
2018-12-19T12:40:18.657Z,7.30
2018-12-19T12:42:49.600Z,7.20
2018-12-19T12:45:22.437Z,7.20
2018-12-19T12:47:53.698Z,7.20
2018-12-19T12:50:25.562Z,7.20
2018-12-19T12:52:56.938Z,7.20
2018-12-19T12:55:29.458Z,7.10
2018-12-19T12:58:01.077Z,7.10
2018-12-19T13:00:32.846Z,7.10
2018-12-19T13:03:04.619Z,7.10
2018-12-19T13:05:37.256Z,7.20
2018-12-19T13:08:08.781Z,7.20
2018-12-19T13:10:40.837Z,7.20
2018-12-19T13:13:12.179Z,7.30
2018-12-19T13:15:47.896Z,7.30
2018-12-19T13:18:19.518Z,7.30
2018-12-19T13:20:51.104Z,7.30
2018-12-19T13:23:22.965Z,7.30
2018-12-19T13:25:55.745Z,7.30
2018-12-19T13:28:27.525Z,7.30
2018-12-19T13:30:59.108Z,7.20
2018-12-19T13:33:31.045Z,7.20
2018-12-19T13:36:04.505Z,7.20
2018-12-19T13:38:34.865Z,7.20
2018-12-19T13:41:06.446Z,7.20
2018-12-19T13:43:38.669Z,7.20
2018-12-19T13:46:10.629Z,7.20
2018-12-19T13:48:42.033Z,7.20
2018-12-19T13:51:13.695Z,7.20
2018-12-19T13:53:45.396Z,7.20
2018-12-19T13:56:17.373Z,7.20
2018-12-19T13:58:49.273Z,6.60
2018-12-19T14:01:21.334Z,7.20
2018-12-19T14:03:52.870Z,6.30
2018-12-19T14:06:25.429Z,7.20
2018-12-19T14:08:56.870Z,7.30
2018-12-19T14:11:29.350Z,7.40
2018-12-19T14:14:01.393Z,7.40
2018-12-19T14:16:33.205Z,7.40
2018-12-19T14:19:05.144Z,7.40
2018-12-19T14:21:36.823Z,7.40
2018-12-19T14:24:12.581Z,7.40
2018-12-19T14:26:44.026Z,7.40
2018-12-19T14:29:16.106Z,7.40
2018-12-19T14:31:47.350Z,7.30
2018-12-19T14:34:20.100Z,7.20
2018-12-19T14:36:51.638Z,7.20
2018-12-19T14:39:23.959Z,7.20
2018-12-19T14:41:56.000Z,7.20
2018-12-19T14:44:28.618Z,7.20
2018-12-19T14:47:00.777Z,7.20
2018-12-19T14:49:32.756Z,7.30
2018-12-19T14:52:04.196Z,7.30
2018-12-19T14:54:36.417Z,7.30
2018-12-19T14:57:08.554Z,7.30
2018-12-19T14:59:40.335Z,7.30
2018-12-19T15:02:12.688Z,7.30
2018-12-19T15:04:44.690Z,7.20
2018-12-19T15:07:16.830Z,7.20
2018-12-19T15:09:48.813Z,7.20
2018-12-19T15:12:25.694Z,7.20
2018-12-19T15:14:55.414Z,7.20
2018-12-19T15:17:26.974Z,7.20
2018-12-19T15:19:59.014Z,7.10
2018-12-19T15:22:30.494Z,6.90
2018-12-19T15:25:03.034Z,6.80
2018-12-19T15:27:35.252Z,6.60
2018-12-19T15:30:07.021Z,6.50
2018-12-19T15:32:39.279Z,6.50
2018-12-19T15:35:12.112Z,6.40
2018-12-19T15:37:43.887Z,6.30
2018-12-19T15:40:15.482Z,6.30
2018-12-19T15:42:47.779Z,6.30
2018-12-19T15:45:18.926Z,6.30
2018-12-19T15:47:50.300Z,6.30
2018-12-19T15:50:22.087Z,6.30
2018-12-19T15:52:54.306Z,6.20
2018-12-19T15:55:26.817Z,6.20
2018-12-19T15:57:58.215Z,6.10
2018-12-19T16:00:29.916Z,6.10
2018-12-19T16:03:02.368Z,6.10
2018-12-19T16:05:33.073Z,6.10
2018-12-19T16:08:04.593Z,6.00
2018-12-19T16:10:36.530Z,5.90
2018-12-19T16:13:09.236Z,5.90
2018-12-19T16:15:40.379Z,5.80
2018-12-19T16:18:12.618Z,5.80
2018-12-19T16:20:44.398Z,5.80
2018-12-19T16:23:15.701Z,5.80
2018-12-19T16:25:47.266Z,5.90
2018-12-19T16:28:18.264Z,5.90
2018-12-19T16:30:49.657Z,5.90
2018-12-19T16:33:21.118Z,5.90
2018-12-19T16:35:52.652Z,6.00
2018-12-19T16:38:23.660Z,6.10
2018-12-19T16:40:56.061Z,6.10
2018-12-19T16:43:27.862Z,6.20
2018-12-19T16:45:59.722Z,6.30
2018-12-19T16:48:30.881Z,6.40
2018-12-19T16:51:04.122Z,6.40
2018-12-19T16:53:36.222Z,6.50
2018-12-19T16:56:09.266Z,6.60
2018-12-19T16:58:41.045Z,6.60
2018-12-19T17:01:13.740Z,6.60
2018-12-19T17:03:45.421Z,6.60
2018-12-19T17:06:17.402Z,6.70
2018-12-19T17:08:49.000Z,6.70
2018-12-19T17:11:22.122Z,6.70
2018-12-19T17:13:53.905Z,6.80
2018-12-19T17:16:26.141Z,6.80
2018-12-19T17:18:57.663Z,6.70
2018-12-19T17:21:30.143Z,6.60
2018-12-19T17:24:01.663Z,6.40
2018-12-19T17:26:33.522Z,6.40
2018-12-19T17:29:05.421Z,6.60
2018-12-19T17:31:37.202Z,6.60
2018-12-19T17:34:08.801Z,6.70
2018-12-19T17:36:40.621Z,6.80
2018-12-19T17:39:12.141Z,6.90
2018-12-19T17:41:44.021Z,7.00
2018-12-19T17:44:16.646Z,7.00
2018-12-19T17:46:48.982Z,7.00
2018-12-19T17:49:20.822Z,7.00
2018-12-19T17:51:52.992Z,7.00
2018-12-19T17:54:25.062Z,7.10
2018-12-19T17:56:57.162Z,7.00
2018-12-19T17:59:28.922Z,7.10
2018-12-19T18:02:02.421Z,7.20
2018-12-19T18:04:33.761Z,7.20
2018-12-19T18:07:06.642Z,7.20
2018-12-19T18:09:38.861Z,7.30
2018-12-19T18:12:11.002Z,7.40
2018-12-19T18:14:43.242Z,7.30
2018-12-19T18:17:15.504Z,7.40
2018-12-19T18:19:47.882Z,7.40
2018-12-19T18:22:20.403Z,7.50
2018-12-19T18:24:52.263Z,7.50
2018-12-19T18:27:25.285Z,7.40
2018-12-19T18:29:57.802Z,7.40
2018-12-19T18:32:30.263Z,7.40
2018-12-19T18:35:00.778Z,7.40
2018-12-19T18:37:33.447Z,7.30
2018-12-19T18:40:05.882Z,7.20
2018-12-19T18:42:37.722Z,7.10
2018-12-19T18:45:11.976Z,7.10
2018-12-19T18:47:44.082Z,7.20
2018-12-19T18:50:15.542Z,7.00
2018-12-19T18:52:47.304Z,7.10
2018-12-19T18:55:18.783Z,7.20
2018-12-19T18:57:51.164Z,7.10
2018-12-19T19:00:27.224Z,7.10
2018-12-19T19:02:59.150Z,7.10
2018-12-19T19:05:30.835Z,7.20
2018-12-19T19:08:03.207Z,7.20
2018-12-19T19:10:34.703Z,7.20
2018-12-19T19:13:06.765Z,7.30
2018-12-19T19:15:38.467Z,7.30
2018-12-19T19:18:10.623Z,7.20
2018-12-19T19:20:43.863Z,7.20
2018-12-19T19:23:15.187Z,7.20
2018-12-19T19:25:48.123Z,7.20
2018-12-19T19:28:20.086Z,7.10
2018-12-19T19:30:52.143Z,7.00
2018-12-19T19:33:24.943Z,7.00
2018-12-19T19:35:56.804Z,6.90
2018-12-19T19:38:28.564Z,7.00
2018-12-19T19:41:00.444Z,7.00
2018-12-19T19:43:32.324Z,7.10
2018-12-19T19:46:04.465Z,7.10
2018-12-19T19:48:36.344Z,7.10
2018-12-19T19:51:08.504Z,7.20
2018-12-19T19:53:40.563Z,7.20
2018-12-19T19:56:13.065Z,7.10
2018-12-19T19:58:44.925Z,7.10
2018-12-19T20:01:16.903Z,7.10
2018-12-19T20:03:48.847Z,7.10
2018-12-19T20:06:20.665Z,7.00
2018-12-19T20:08:52.825Z,7.00
2018-12-19T20:11:25.164Z,6.90
2018-12-19T20:13:56.723Z,6.90
2018-12-19T20:16:29.504Z,6.80
2018-12-19T20:19:01.823Z,6.80
2018-12-19T20:21:33.924Z,6.80
2018-12-19T20:24:06.124Z,6.70
2018-12-19T20:26:38.767Z,6.70
2018-12-19T20:29:10.901Z,6.70
2018-12-19T20:31:43.489Z,6.70
2018-12-19T20:34:16.304Z,6.70
2018-12-19T20:36:48.447Z,6.70
2018-12-19T20:39:20.307Z,6.70
2018-12-19T20:41:53.543Z,6.70
2018-12-19T20:44:25.767Z,6.70
2018-12-19T20:46:57.525Z,6.70
2018-12-19T20:49:29.544Z,6.60
2018-12-19T20:52:02.044Z,6.60
2018-12-19T20:54:33.637Z,6.60
2018-12-19T20:57:06.045Z,6.50
2018-12-19T20:59:38.095Z,6.50
2018-12-19T21:02:09.903Z,6.50
2018-12-19T21:04:41.508Z,6.50
2018-12-19T21:07:13.423Z,6.60
2018-12-19T21:09:45.484Z,6.60
2018-12-19T21:12:17.163Z,6.60
2018-12-19T21:14:48.943Z,6.50
2018-12-19T21:19:33.764Z,6.50
2018-12-19T21:22:08.283Z,6.50
2018-12-19T21:24:40.083Z,6.30
2018-12-19T21:27:11.764Z,6.30
2018-12-19T21:29:43.283Z,6.30
2018-12-19T21:32:15.243Z,6.20
2018-12-19T21:34:47.848Z,6.10
2018-12-19T21:37:20.944Z,6.20
2018-12-19T21:39:53.143Z,6.10
2018-12-19T21:42:25.385Z,6.10
2018-12-19T21:44:57.764Z,6.10
2018-12-19T21:47:29.966Z,6.10
2018-12-19T21:50:01.428Z,6.20
2018-12-19T21:52:33.939Z,6.20
2018-12-19T21:55:06.149Z,6.20
2018-12-19T21:57:38.679Z,6.30
2018-12-19T22:00:15.304Z,6.30
2018-12-19T22:02:48.210Z,6.30
2018-12-19T22:05:20.684Z,6.30
2018-12-19T22:07:52.996Z,6.30
2018-12-19T22:10:24.986Z,6.30
2018-12-19T22:12:57.282Z,6.30
2018-12-19T22:15:29.083Z,6.30
2018-12-19T22:18:05.970Z,6.30
2018-12-19T22:20:38.405Z,6.40
2018-12-19T22:23:10.761Z,6.40
2018-12-19T22:25:43.166Z,6.40
2018-12-19T22:28:15.327Z,6.40
2018-12-19T22:30:46.639Z,6.40
2018-12-19T22:33:18.115Z,6.40
2018-12-19T22:35:50.584Z,6.40
2018-12-19T22:38:22.516Z,6.40
2018-12-19T22:40:54.704Z,6.40
2018-12-19T22:43:27.853Z,6.40
2018-12-19T22:46:00.325Z,6.40
2018-12-19T22:48:32.644Z,6.50
2018-12-19T22:51:04.147Z,6.50
2018-12-19T22:53:36.744Z,6.50
2018-12-19T22:56:09.492Z,6.40
2018-12-19T22:58:41.463Z,6.40
2018-12-19T23:01:17.843Z,6.40
2018-12-19T23:03:53.996Z,6.40
2018-12-19T23:06:26.565Z,6.50
2018-12-19T23:08:59.426Z,6.60
2018-12-19T23:11:31.082Z,6.60
2018-12-19T23:14:02.295Z,6.60
2018-12-19T23:16:33.464Z,6.70
2018-12-19T23:19:05.809Z,6.70
2018-12-19T23:21:37.125Z,6.80
2018-12-19T23:24:09.503Z,6.80
2018-12-19T23:26:41.687Z,6.90
2018-12-19T23:29:15.047Z,6.90
2018-12-19T23:31:47.406Z,6.90
2018-12-19T23:34:20.666Z,7.00
2018-12-19T23:36:52.546Z,7.00
2018-12-19T23:39:24.081Z,7.00
2018-12-19T23:41:55.502Z,6.90
2018-12-19T23:44:33.222Z,7.00
2018-12-19T23:47:05.903Z,6.90
2018-12-19T23:49:37.304Z,6.80
2018-12-19T23:52:09.682Z,6.90
2018-12-19T23:54:41.143Z,6.90
2018-12-19T23:57:13.613Z,6.80
2018-12-19T23:59:45.447Z,6.80
